Terminal Aerodrome Forecast
Issued by NWS

Home | Current Version | Previous Version | Text Only | Print | Product List | Glossary On
Versions: 1 2 3 4 5 6 7 8 9 10 11 12 13 14 15 16 17 18 19 20
699
FTUS44 KMAF 270659 AAA
TAFHOB
TAF AMD
KHOB 270659Z 2707/2806 20007KT P6SM FEW250
     FM271700 23024G34KT P6SM FEW250
     FM280300 26010KT P6SM FEW200=

USA.gov is the U.S. government's official web portal to all federal, state and local government web resources and services.